Time;durP1;ratioP1;P1;durP2;ratioP2;P2;SDS_P1;SDS_P2;PMS_P1;PMS_P2;Temp;Humidity;BMP_temperature;BMP_pressure;BME280_temperature;BME280_humidity;BME280_pressure;Samples;Min_cycle;Max_cycle;Signal;HPM_P1;HPM_P2
2022/01/11 00:01:21;;;;;;;12.93;8.63;;;-3.60;86.00;;;;;;6182809;23;20009;-63
2022/01/11 00:03:48;;;;;;;13.63;8.52;;;-3.70;86.20;;;;;;6183324;23;20001;-63
2022/01/11 00:08:50;;;;;;;13.27;8.85;;;-3.70;86.40;;;;;;6192616;23;20499;-64
2022/01/11 00:11:16;;;;;;;14.55;9.30;;;-3.70;86.60;;;;;;6183079;23;20001;-63
2022/01/11 00:13:43;;;;;;;13.02;8.70;;;-3.60;86.40;;;;;;6183096;23;20413;-64
2022/01/11 00:16:13;;;;;;;11.68;7.93;;;-3.70;86.10;;;;;;6182514;23;20001;-64
2022/01/11 00:18:38;;;;;;;13.55;8.88;;;-3.70;85.90;;;;;;6182022;23;20032;-62
2022/01/11 00:21:04;;;;;;;12.43;8.57;;;-3.70;86.00;;;;;;6182585;23;20004;-64
2022/01/11 00:25:57;;;;;;;11.25;7.97;;;-3.70;85.70;;;;;;6192312;23;20005;-63
2022/01/11 00:28:27;;;;;;;11.52;7.80;;;-3.70;85.50;;;;;;6182731;23;20084;-63
2022/01/11 00:30:54;;;;;;;12.98;8.45;;;-3.70;85.10;;;;;;6181843;23;20068;-63
2022/01/11 00:33:29;;;;;;;14.35;8.60;;;-3.70;85.10;;;;;;6182586;23;20024;-63
2022/01/11 00:35:59;;;;;;;14.57;8.73;;;-3.80;85.30;;;;;;6182802;23;20092;-63
2022/01/11 00:38:37;;;;;;;12.43;8.25;;;-3.80;85.40;;;;;;6182590;23;20328;-63
2022/01/11 00:41:09;;;;;;;11.23;7.97;;;-3.80;85.20;;;;;;6183023;23;20467;-63
2022/01/11 00:43:35;;;;;;;12.93;8.13;;;-3.80;85.30;;;;;;6182458;23;20011;-62
2022/01/11 00:46:02;;;;;;;11.45;7.70;;;-3.80;85.40;;;;;;6182660;23;20012;-63
2022/01/11 00:48:28;;;;;;;11.40;7.38;;;-3.90;85.30;;;;;;6182403;23;20084;-62
2022/01/11 00:50:55;;;;;;;12.20;7.70;;;-3.90;85.10;;;;;;6182287;23;20422;-63
2022/01/11 00:53:22;;;;;;;12.02;7.03;;;-3.90;85.40;;;;;;6183084;23;20009;-63
2022/01/11 00:55:49;;;;;;;11.07;7.40;;;-3.90;85.50;;;;;;6182285;23;20005;-64
2022/01/11 00:58:16;;;;;;;10.07;6.60;;;-3.90;85.50;;;;;;6182911;23;20012;-63
2022/01/11 01:00:43;;;;;;;11.18;7.00;;;-3.90;85.60;;;;;;6182109;23;20011;-64
2022/01/11 01:03:09;;;;;;;10.05;6.68;;;-3.90;85.70;;;;;;6182901;23;20001;-62
2022/01/11 01:05:35;;;;;;;11.50;7.55;;;-3.90;85.60;;;;;;6182506;23;20011;-62
2022/01/11 01:08:01;;;;;;;10.80;6.78;;;-3.90;85.20;;;;;;6182727;23;20001;-63
2022/01/11 01:10:35;;;;;;;9.80;6.70;;;-3.90;84.90;;;;;;6182395;23;20007;-63
2022/01/11 01:13:02;;;;;;;10.65;6.90;;;-3.90;84.70;;;;;;6182533;23;20064;-62
2022/01/11 01:15:28;;;;;;;11.63;7.28;;;-3.90;84.90;;;;;;6183051;23;20005;-63
2022/01/11 01:17:55;;;;;;;11.02;6.97;;;-3.90;84.70;;;;;;6182555;23;20445;-63
2022/01/11 01:20:21;;;;;;;10.32;6.85;;;-3.90;84.50;;;;;;6182493;23;20005;-62
2022/01/11 01:22:50;;;;;;;11.63;7.40;;;-3.90;84.60;;;;;;6182387;23;20329;-63
2022/01/11 01:25:23;;;;;;;11.18;7.68;;;-3.90;84.50;;;;;;6182684;23;20425;-63
2022/01/11 01:27:50;;;;;;;11.88;7.68;;;-3.90;84.50;;;;;;6183106;23;20005;-63
2022/01/11 01:30:17;;;;;;;10.73;7.32;;;-3.90;84.60;;;;;;6182060;23;20736;-63
2022/01/11 01:32:44;;;;;;;10.82;7.78;;;-3.90;84.80;;;;;;6185804;23;20025;-63
2022/01/11 01:35:11;;;;;;;11.88;7.47;;;-3.90;84.60;;;;;;6184018;23;20020;-63
2022/01/11 01:37:37;;;;;;;11.27;7.97;;;-3.90;84.60;;;;;;6184741;23;20005;-63
2022/01/11 01:40:05;;;;;;;16.30;9.90;;;-3.90;84.70;;;;;;6184970;23;20036;-63
2022/01/11 01:42:31;;;;;;;38.10;18.20;;;-3.80;85.00;;;;;;6184871;23;20750;-63
2022/01/11 01:45:00;;;;;;;40.75;19.60;;;-3.80;85.30;;;;;;6184276;23;20005;-64
2022/01/11 01:47:26;;;;;;;34.85;17.05;;;-3.80;85.40;;;;;;6184716;23;20001;-62
2022/01/11 01:49:52;;;;;;;35.78;16.38;;;-3.80;84.90;;;;;;6184713;23;19997;-63
2022/01/11 01:52:18;;;;;;;42.78;19.60;;;-3.80;84.80;;;;;;6183813;23;20103;-63
2022/01/11 01:54:44;;;;;;;34.83;17.17;;;-3.80;84.80;;;;;;6184397;23;20089;-63
2022/01/11 01:57:10;;;;;;;18.20;10.82;;;-3.80;85.00;;;;;;6184495;23;20425;-62
2022/01/11 01:59:36;;;;;;;13.77;9.32;;;-3.80;85.00;;;;;;6184466;23;20005;-63
2022/01/11 02:02:04;;;;;;;27.83;15.15;;;-3.80;85.00;;;;;;6183609;23;20373;-63
2022/01/11 02:04:29;;;;;;;18.02;11.30;;;-3.80;85.00;;;;;;6184312;23;20008;-63
2022/01/11 02:06:55;;;;;;;14.68;10.15;;;-3.80;84.90;;;;;;6184308;23;20005;-63
2022/01/11 02:09:21;;;;;;;14.27;8.73;;;-3.80;84.90;;;;;;6183915;23;20001;-63
2022/01/11 02:11:47;;;;;;;14.00;9.10;;;-3.80;84.30;;;;;;6184221;23;20465;-63
2022/01/11 02:14:13;;;;;;;17.45;10.48;;;-3.80;84.50;;;;;;6183992;23;20001;-63
2022/01/11 02:16:39;;;;;;;20.77;13.45;;;-3.80;84.70;;;;;;6183131;23;20405;-63
2022/01/11 02:19:05;;;;;;;18.40;11.35;;;-3.80;84.50;;;;;;6183944;23;20009;-62
2022/01/11 02:21:31;;;;;;;20.08;13.38;;;-3.90;83.90;;;;;;6184048;23;20011;-64
2022/01/11 02:23:58;;;;;;;21.20;13.77;;;-3.90;83.50;;;;;;6184380;23;20071;-63
2022/01/11 02:26:24;;;;;;;26.08;15.05;;;-3.90;83.60;;;;;;6184449;23;20483;-62
2022/01/11 02:28:51;;;;;;;16.77;10.50;;;-3.90;83.20;;;;;;6183649;23;20020;-65
2022/01/11 02:31:18;;;;;;;19.55;12.98;;;-3.90;83.40;;;;;;6184482;23;20322;-63
2022/01/11 02:33:52;;;;;;;17.17;11.00;;;-3.90;83.40;;;;;;6184154;23;20017;-62
2022/01/11 02:36:21;;;;;;;20.73;12.50;;;-3.90;83.30;;;;;;6184367;23;20017;-62
2022/01/11 02:38:49;;;;;;;15.52;9.98;;;-3.90;83.70;;;;;;6183768;23;20005;-63
2022/01/11 02:41:15;;;;;;;24.08;17.30;;;-4.00;83.70;;;;;;6184418;23;20076;-63
2022/01/11 02:43:43;;;;;;;22.48;16.00;;;-4.00;83.60;;;;;;6184153;23;20391;-63
2022/01/11 02:46:09;;;;;;;22.80;14.50;;;-4.00;83.80;;;;;;6184295;23;20021;-63
2022/01/11 02:48:35;;;;;;;15.52;10.40;;;-4.00;83.70;;;;;;6183792;23;20005;-63
2022/01/11 02:51:01;;;;;;;17.63;11.40;;;-4.00;83.40;;;;;;6183868;23;20001;-63
2022/01/11 02:53:27;;;;;;;18.75;13.02;;;-4.00;83.50;;;;;;6184126;23;20008;-63
2022/01/11 02:55:52;;;;;;;14.63;9.88;;;-4.00;83.50;;;;;;6184071;23;20001;-63
2022/01/11 02:58:18;;;;;;;13.80;9.57;;;-4.00;83.60;;;;;;6183762;23;20076;-63
2022/01/11 03:00:44;;;;;;;15.48;9.88;;;-4.00;83.70;;;;;;6183559;23;20104;-64
2022/01/11 03:03:22;;;;;;;16.52;9.88;;;-4.00;83.60;;;;;;6184282;23;20067;-63
2022/01/11 03:05:51;;;;;;;14.27;9.40;;;-4.00;83.70;;;;;;6157650;23;20005;-64
2022/01/11 03:08:17;;;;;;;14.50;9.30;;;-4.00;83.70;;;;;;6183637;23;20016;-63
2022/01/11 03:10:43;;;;;;;14.45;9.48;;;-4.00;83.60;;;;;;6184014;23;20103;-64
2022/01/11 03:13:10;;;;;;;14.10;9.40;;;-4.00;83.70;;;;;;6183998;23;20001;-62
2022/01/11 03:15:37;;;;;;;15.15;9.45;;;-4.10;83.60;;;;;;6183875;23;20001;-64
2022/01/11 03:18:04;;;;;;;14.68;9.60;;;-4.00;83.50;;;;;;6184096;23;20005;-63
2022/01/11 03:20:33;;;;;;;15.02;9.68;;;-4.00;83.20;;;;;;6183253;23;20029;-63
2022/01/11 03:22:59;;;;;;;13.57;9.10;;;-4.00;82.90;;;;;;6183784;23;20005;-63
2022/01/11 03:25:25;;;;;;;13.70;8.55;;;-4.00;82.70;;;;;;6183755;23;20015;-64
2022/01/11 03:27:52;;;;;;;15.00;9.35;;;-4.00;83.10;;;;;;6183757;23;20001;-62
2022/01/11 03:30:18;;;;;;;14.63;8.77;;;-3.90;82.80;;;;;;6183187;23;20001;-63
2022/01/11 03:32:44;;;;;;;14.38;9.18;;;-3.90;82.80;;;;;;6183476;23;20017;-64
2022/01/11 03:35:11;;;;;;;15.45;9.77;;;-3.90;82.80;;;;;;6183567;23;20144;-64
2022/01/11 03:37:38;;;;;;;15.45;9.75;;;-3.90;82.50;;;;;;6183250;23;20332;-63
2022/01/11 03:40:07;;;;;;;13.48;8.40;;;-3.90;82.10;;;;;;6183667;23;20039;-64
2022/01/11 03:42:32;;;;;;;14.05;9.13;;;-3.90;82.20;;;;;;6183328;23;20001;-63
2022/01/11 03:44:58;;;;;;;15.10;9.30;;;-3.90;82.10;;;;;;6183591;23;20001;-64
2022/01/11 03:47:24;;;;;;;15.95;9.48;;;-3.90;82.10;;;;;;6183309;23;20001;-63
2022/01/11 03:49:50;;;;;;;16.33;9.65;;;-3.90;82.20;;;;;;6183235;23;20005;-64
2022/01/11 03:52:16;;;;;;;16.10;9.98;;;-3.90;82.20;;;;;;6182430;23;20024;-63
2022/01/11 03:57:16;;;;;;;16.15;9.55;;;-3.90;82.10;;;;;;6193710;23;20123;-64
2022/01/11 03:59:42;;;;;;;13.65;8.90;;;-3.90;81.90;;;;;;6183327;23;20008;-63
2022/01/11 04:02:07;;;;;;;15.48;9.45;;;-3.90;81.70;;;;;;6183553;23;19997;-62
2022/01/11 04:04:33;;;;;;;15.90;10.35;;;-3.90;81.80;;;;;;6182885;23;20005;-64
2022/01/11 04:07:02;;;;;;;17.70;11.32;;;-3.90;81.60;;;;;;6183200;23;20020;-64
2022/01/11 04:09:28;;;;;;;19.30;12.27;;;-3.90;81.40;;;;;;6182995;23;20028;-63
2022/01/11 04:11:54;;;;;;;16.00;10.63;;;-3.90;81.50;;;;;;6183194;23;20001;-63
2022/01/11 04:14:21;;;;;;;16.58;9.55;;;-3.90;81.60;;;;;;6182834;23;20051;-63
2022/01/11 04:16:47;;;;;;;14.95;9.55;;;-3.90;81.80;;;;;;6182964;23;20001;-63
2022/01/11 04:19:13;;;;;;;15.05;9.43;;;-3.90;81.80;;;;;;6156972;23;20135;-63
2022/01/11 04:21:39;;;;;;;15.27;9.35;;;-3.90;81.80;;;;;;6183051;23;20032;-63
2022/01/11 04:24:05;;;;;;;15.98;9.85;;;-3.90;81.60;;;;;;6182441;23;20069;-64
2022/01/11 04:26:30;;;;;;;15.50;10.15;;;-3.80;81.70;;;;;;6183325;23;20333;-63
2022/01/11 04:28:56;;;;;;;16.67;10.00;;;-3.90;81.60;;;;;;6182564;23;20097;-63
2022/01/11 04:31:22;;;;;;;16.23;10.48;;;-3.90;81.70;;;;;;6182848;23;20435;-63
2022/01/11 04:33:47;;;;;;;17.58;10.23;;;-3.90;81.70;;;;;;6182979;23;20113;-64
2022/01/11 04:36:13;;;;;;;17.52;10.70;;;-3.90;81.90;;;;;;6182789;23;19997;-64
2022/01/11 04:38:39;;;;;;;17.50;10.32;;;-3.90;82.00;;;;;;6182781;23;20057;-63
2022/01/11 04:41:05;;;;;;;16.67;11.38;;;-3.90;82.20;;;;;;6183297;23;20005;-63
2022/01/11 04:43:30;;;;;;;18.80;11.48;;;-3.80;82.50;;;;;;6182548;23;20039;-63
2022/01/11 04:45:57;;;;;;;17.15;11.25;;;-3.90;82.50;;;;;;6183093;23;20447;-64
2022/01/11 04:48:23;;;;;;;19.70;12.35;;;-3.90;82.60;;;;;;6183457;23;20012;-63
2022/01/11 04:50:49;;;;;;;18.98;12.30;;;-3.90;82.70;;;;;;6183331;23;20028;-63
2022/01/11 04:53:16;;;;;;;18.33;11.70;;;-3.90;82.90;;;;;;6183025;23;20001;-63
2022/01/11 04:55:42;;;;;;;18.90;11.95;;;-3.90;82.90;;;;;;6182828;23;20009;-63
2022/01/11 04:58:08;;;;;;;19.58;11.40;;;-3.90;83.00;;;;;;6182644;23;20089;-64
2022/01/11 05:00:35;;;;;;;19.05;11.73;;;-3.90;82.90;;;;;;6182524;23;20029;-64
2022/01/11 05:03:00;;;;;;;20.50;12.35;;;-3.90;83.20;;;;;;6183042;23;20001;-65
2022/01/11 05:05:29;;;;;;;21.48;12.27;;;-3.90;83.20;;;;;;6182895;23;20076;-63
2022/01/11 05:07:56;;;;;;;18.45;12.18;;;-3.90;83.20;;;;;;6182427;23;20366;-64
2022/01/11 05:10:23;;;;;;;20.50;12.07;;;-3.90;83.20;;;;;;6185090;23;20012;-64
2022/01/11 05:12:49;;;;;;;20.25;12.63;;;-3.90;83.40;;;;;;6184877;23;20028;-63
2022/01/11 05:15:17;;;;;;;23.45;12.40;;;-4.00;83.60;;;;;;6184924;23;20035;-63
2022/01/11 05:17:43;;;;;;;17.88;11.43;;;-3.90;83.70;;;;;;6185052;23;20008;-63
2022/01/11 05:20:10;;;;;;;18.58;11.32;;;-4.00;83.60;;;;;;6184697;23;20016;-64
2022/01/11 05:22:36;;;;;;;19.23;11.90;;;-4.00;83.80;;;;;;6185177;23;20327;-62
2022/01/11 05:25:03;;;;;;;19.77;12.10;;;-4.00;83.90;;;;;;6184808;23;20001;-64
2022/01/11 05:27:29;;;;;;;19.38;11.55;;;-4.00;83.90;;;;;;6185291;23;20012;-63
2022/01/11 05:29:55;;;;;;;18.70;11.88;;;-4.00;83.80;;;;;;6183929;23;20425;-64
2022/01/11 05:32:21;;;;;;;19.05;11.57;;;-4.00;84.00;;;;;;6184721;23;20087;-64
2022/01/11 05:34:47;;;;;;;18.80;11.43;;;-4.00;84.00;;;;;;6184763;23;20021;-64
2022/01/11 05:37:13;;;;;;;20.00;12.00;;;-3.90;83.90;;;;;;6184877;23;20491;-62
2022/01/11 05:39:39;;;;;;;20.05;11.65;;;-4.00;84.00;;;;;;6184389;23;20012;-63
2022/01/11 05:42:06;;;;;;;17.65;11.57;;;-3.90;83.90;;;;;;6184475;23;20012;-63
2022/01/11 05:44:33;;;;;;;20.88;12.40;;;-4.00;83.70;;;;;;6184499;23;20369;-63
2022/01/11 05:46:59;;;;;;;19.25;12.25;;;-4.00;83.80;;;;;;6183739;23;20005;-63
2022/01/11 05:49:24;;;;;;;20.52;11.88;;;-4.00;83.80;;;;;;6183699;23;20168;-63
2022/01/11 05:51:50;;;;;;;25.30;14.55;;;-4.00;83.90;;;;;;6184301;23;20024;-63
2022/01/11 05:54:16;;;;;;;21.60;12.60;;;-3.90;84.00;;;;;;6184712;23;20079;-65
2022/01/11 05:56:41;;;;;;;20.45;12.52;;;-4.00;83.80;;;;;;6184866;23;20001;-66
2022/01/11 05:59:07;;;;;;;20.13;12.50;;;-4.00;83.90;;;;;;6184212;23;20079;-63
2022/01/11 06:01:34;;;;;;;17.52;10.98;;;-4.00;83.70;;;;;;6183710;23;20025;-64
2022/01/11 06:04:00;;;;;;;18.85;12.27;;;-4.00;83.50;;;;;;6183102;23;20437;-66
2022/01/11 06:06:25;;;;;;;21.80;13.82;;;-4.00;83.70;;;;;;6158265;23;20071;-64
2022/01/11 06:08:51;;;;;;;19.50;12.35;;;-4.00;83.80;;;;;;6184813;23;20052;-63
2022/01/11 06:11:17;;;;;;;19.40;12.65;;;-4.00;84.10;;;;;;6157995;23;20032;-64
2022/01/11 06:13:42;;;;;;;18.33;11.65;;;-3.90;84.00;;;;;;6184246;23;20366;-64
2022/01/11 06:16:08;;;;;;;21.75;13.77;;;-4.00;83.90;;;;;;6183808;23;20448;-64
2022/01/11 06:18:34;;;;;;;21.88;14.18;;;-3.90;84.00;;;;;;6183943;23;20001;-63
2022/01/11 06:21:01;;;;;;;19.20;12.63;;;-3.90;83.90;;;;;;6183245;23;20012;-64
2022/01/11 06:23:26;;;;;;;16.90;11.15;;;-3.90;83.80;;;;;;6183728;23;20001;-64
2022/01/11 06:25:52;;;;;;;18.67;11.63;;;-3.90;83.70;;;;;;6183316;23;20008;-64
2022/01/11 06:28:17;;;;;;;18.13;10.93;;;-3.90;83.70;;;;;;6183714;23;20023;-63
2022/01/11 06:30:43;;;;;;;19.63;11.18;;;-3.90;84.00;;;;;;6158010;23;20005;-64
2022/01/11 06:33:09;;;;;;;16.77;10.70;;;-4.00;84.00;;;;;;6183444;23;20455;-64
2022/01/11 06:35:34;;;;;;;16.98;10.35;;;-4.00;84.40;;;;;;6183607;23;20015;-64
2022/01/11 06:38:00;;;;;;;16.85;10.55;;;-4.00;84.20;;;;;;6183444;23;20025;-64
2022/01/11 06:40:26;;;;;;;17.27;10.55;;;-4.00;84.00;;;;;;6183789;23;20001;-65
2022/01/11 06:42:52;;;;;;;15.35;10.05;;;-3.90;84.30;;;;;;6183374;23;20013;-62
2022/01/11 06:45:20;;;;;;;16.92;10.80;;;-3.90;84.20;;;;;;6183045;23;20005;-63
2022/01/11 06:47:46;;;;;;;17.55;10.60;;;-3.90;84.10;;;;;;6183934;23;20009;-64
2022/01/11 06:50:12;;;;;;;17.05;10.57;;;-3.90;84.10;;;;;;6183437;23;20055;-64
2022/01/11 06:52:38;;;;;;;15.82;10.05;;;-3.90;84.30;;;;;;6156538;23;20307;-64
2022/01/11 06:55:06;;;;;;;17.13;10.88;;;-3.90;84.50;;;;;;6183565;23;20284;-63
2022/01/11 06:57:32;;;;;;;17.38;10.90;;;-3.90;84.50;;;;;;6184138;23;20035;-63
2022/01/11 06:59:57;;;;;;;16.45;10.38;;;-3.90;84.50;;;;;;6183951;23;20620;-64
2022/01/11 07:02:23;;;;;;;16.33;10.32;;;-3.90;84.80;;;;;;6183466;23;20001;-63
2022/01/11 07:04:49;;;;;;;16.58;10.35;;;-3.90;84.70;;;;;;6183779;23;20005;-64
2022/01/11 07:07:15;;;;;;;15.27;10.20;;;-3.90;84.90;;;;;;6183449;23;20328;-63
2022/01/11 07:09:40;;;;;;;15.18;9.73;;;-3.90;84.70;;;;;;6183153;23;20005;-64
2022/01/11 07:12:06;;;;;;;14.77;9.82;;;-3.90;85.30;;;;;;6183452;23;20005;-64
2022/01/11 07:14:32;;;;;;;14.88;9.35;;;-3.90;85.10;;;;;;6183330;23;20484;-64
2022/01/11 07:16:58;;;;;;;15.50;9.85;;;-4.00;85.10;;;;;;6183779;23;20001;-64
2022/01/11 07:19:24;;;;;;;13.80;9.40;;;-3.90;85.40;;;;;;6183013;23;20428;-64
2022/01/11 07:21:50;;;;;;;15.93;10.10;;;-3.90;85.30;;;;;;6183588;23;20008;-63
2022/01/11 07:24:17;;;;;;;14.43;8.68;;;-3.90;85.30;;;;;;6183151;23;20499;-63
2022/01/11 07:26:43;;;;;;;16.00;9.82;;;-3.90;84.30;;;;;;6156772;23;20333;-63
2022/01/11 07:29:09;;;;;;;14.20;8.90;;;-3.90;84.30;;;;;;6183131;23;20008;-64
2022/01/11 07:31:41;;;;;;;20.08;12.23;;;-3.90;84.10;;;;;;6182976;23;20055;-63
2022/01/11 07:34:08;;;;;;;16.85;10.52;;;-3.90;84.60;;;;;;6182761;23;20449;-63
2022/01/11 07:36:34;;;;;;;14.48;8.43;;;-3.90;84.70;;;;;;6182787;23;20031;-64
2022/01/11 07:39:00;;;;;;;13.50;8.68;;;-3.90;84.70;;;;;;6183222;23;20443;-64
2022/01/11 07:41:26;;;;;;;13.02;7.65;;;-3.80;84.60;;;;;;6183473;23;20068;-63
2022/01/11 07:43:51;;;;;;;11.00;6.78;;;-3.80;84.20;;;;;;6183590;23;20007;-63
2022/01/11 07:46:17;;;;;;;10.60;6.93;;;-3.80;83.90;;;;;;6183258;23;20012;-64
2022/01/11 07:48:43;;;;;;;11.20;7.13;;;-3.80;84.10;;;;;;6183351;23;20032;-64
2022/01/11 07:51:08;;;;;;;11.02;7.30;;;-3.80;83.80;;;;;;6183553;23;20001;-64
2022/01/11 07:53:34;;;;;;;10.23;6.63;;;-3.80;83.70;;;;;;6157229;23;20056;-63
2022/01/11 07:56:00;;;;;;;10.43;6.72;;;-3.70;83.20;;;;;;6183160;23;20016;-65
2022/01/11 07:58:26;;;;;;;11.95;6.95;;;-3.70;83.30;;;;;;6183297;23;20076;-63
2022/01/11 08:00:52;;;;;;;11.65;6.93;;;-3.70;83.10;;;;;;6183639;23;20288;-64
2022/01/11 08:03:18;;;;;;;10.82;6.90;;;-3.70;83.20;;;;;;6182765;23;20056;-64
2022/01/11 08:05:44;;;;;;;11.30;6.55;;;-3.70;82.80;;;;;;6183080;23;20009;-64
2022/01/11 08:08:09;;;;;;;11.02;6.75;;;-3.60;82.70;;;;;;6183147;23;20005;-63
2022/01/11 08:10:35;;;;;;;11.10;6.55;;;-3.60;83.10;;;;;;6182876;23;20092;-64
2022/01/11 08:13:05;;;;;;;10.25;7.05;;;-3.60;82.90;;;;;;6183398;23;20043;-64
2022/01/11 08:15:32;;;;;;;11.40;6.78;;;-3.60;83.40;;;;;;6183534;23;20314;-64
2022/01/11 08:17:58;;;;;;;10.70;6.60;;;-3.60;83.20;;;;;;6183571;23;20151;-64
2022/01/11 08:20:24;;;;;;;13.43;7.10;;;-3.60;83.00;;;;;;6183583;23;20005;-64
2022/01/11 08:22:51;;;;;;;12.45;7.40;;;-3.50;82.90;;;;;;6181722;23;20012;-64
2022/01/11 08:25:17;;;;;;;10.48;6.32;;;-3.50;82.00;;;;;;6183373;23;20118;-62
2022/01/11 08:27:43;;;;;;;10.70;6.50;;;-3.40;81.80;;;;;;6182743;23;20089;-64
2022/01/11 08:30:09;;;;;;;10.30;6.38;;;-3.40;81.30;;;;;;6182967;23;20080;-64
2022/01/11 08:32:35;;;;;;;10.20;6.40;;;-3.40;81.30;;;;;;6182887;23;20008;-63
2022/01/11 08:35:01;;;;;;;9.90;5.72;;;-3.30;81.10;;;;;;6182773;23;20080;-63
2022/01/11 08:37:26;;;;;;;9.65;5.85;;;-3.30;80.20;;;;;;6183213;23;20032;-63
2022/01/11 08:39:53;;;;;;;9.75;4.95;;;-3.30;79.00;;;;;;6156571;23;20093;-63
2022/01/11 08:42:19;;;;;;;8.82;5.00;;;-3.30;78.60;;;;;;6183148;23;20008;-64
2022/01/11 08:44:46;;;;;;;9.93;5.88;;;-3.40;78.50;;;;;;6182998;23;20089;-64
2022/01/11 08:47:13;;;;;;;9.45;5.28;;;-3.40;78.80;;;;;;6183441;23;20005;-64
2022/01/11 08:49:39;;;;;;;17.40;8.80;;;-3.40;78.50;;;;;;6182475;23;20533;-64
2022/01/11 08:52:05;;;;;;;11.88;6.78;;;-3.40;78.90;;;;;;6183293;23;20024;-63
2022/01/11 08:54:31;;;;;;;10.77;5.82;;;-3.40;79.30;;;;;;6183067;23;20005;-62
2022/01/11 08:56:57;;;;;;;10.93;6.47;;;-3.30;78.90;;;;;;6182950;23;20008;-62
2022/01/11 08:59:27;;;;;;;9.27;5.45;;;-3.30;78.40;;;;;;6182871;23;20011;-64
2022/01/11 09:01:58;;;;;;;9.20;5.50;;;-3.30;78.40;;;;;;6183033;23;20004;-63
2022/01/11 09:04:24;;;;;;;9.15;5.28;;;-3.40;77.30;;;;;;6156709;23;20016;-63
2022/01/11 09:06:51;;;;;;;8.43;5.07;;;-3.40;77.30;;;;;;6182994;23;20368;-64
2022/01/11 09:09:18;;;;;;;12.48;7.25;;;-3.40;77.50;;;;;;6183211;23;20005;-64
2022/01/11 09:11:45;;;;;;;11.35;6.53;;;-3.40;77.80;;;;;;6183408;23;20032;-64
2022/01/11 09:14:11;;;;;;;10.80;6.38;;;-3.30;78.00;;;;;;6183609;23;20420;-63
2022/01/11 09:16:37;;;;;;;12.43;7.07;;;-3.30;77.20;;;;;;6183147;23;20004;-63
2022/01/11 09:19:02;;;;;;;10.57;6.53;;;-3.30;77.30;;;;;;6183037;23;20009;-62
2022/01/11 09:21:30;;;;;;;9.23;5.15;;;-3.30;77.20;;;;;;6183176;23;20444;-63
2022/01/11 09:23:56;;;;;;;8.70;5.28;;;-3.20;76.80;;;;;;6183099;23;20005;-63
2022/01/11 09:26:22;;;;;;;8.40;5.10;;;-3.30;76.60;;;;;;6182901;23;20306;-63
2022/01/11 09:28:48;;;;;;;9.07;5.22;;;-3.30;76.60;;;;;;6182749;23;20003;-63
2022/01/11 09:31:14;;;;;;;8.10;4.82;;;-3.30;77.10;;;;;;6183077;23;20080;-63
2022/01/11 09:33:40;;;;;;;9.55;5.80;;;-3.30;77.20;;;;;;6182926;23;20021;-64
2022/01/11 09:36:07;;;;;;;9.38;5.50;;;-3.30;77.00;;;;;;6183338;23;20001;-62
2022/01/11 09:38:33;;;;;;;9.60;5.75;;;-3.30;77.00;;;;;;6156667;23;20009;-63
2022/01/11 09:40:59;;;;;;;9.50;5.80;;;-3.30;76.80;;;;;;6183383;23;20005;-63
2022/01/11 09:43:27;;;;;;;9.05;5.30;;;-3.30;77.00;;;;;;6183383;23;20690;-64
2022/01/11 09:45:54;;;;;;;9.52;4.85;;;-3.40;76.60;;;;;;6183070;23;20076;-64
2022/01/11 09:48:21;;;;;;;8.82;5.25;;;-3.40;76.80;;;;;;6183268;23;20005;-63
2022/01/11 09:50:47;;;;;;;8.98;5.25;;;-3.40;77.10;;;;;;6183120;23;20070;-64
2022/01/11 09:53:13;;;;;;;11.75;7.30;;;-3.40;77.10;;;;;;6183354;23;20001;-63
2022/01/11 09:55:39;;;;;;;10.40;6.72;;;-3.30;77.10;;;;;;6183447;23;20080;-63
2022/01/11 09:58:05;;;;;;;9.70;6.30;;;-3.10;78.30;;;;;;6184802;23;20421;-63
2022/01/11 10:00:31;;;;;;;9.45;5.82;;;-2.80;77.00;;;;;;6184643;23;20012;-62
2022/01/11 10:02:57;;;;;;;8.60;5.13;;;-2.70;75.60;;;;;;6184672;23;20321;-63
2022/01/11 10:05:24;;;;;;;8.70;5.38;;;-2.60;74.80;;;;;;6184285;23;20041;-64
2022/01/11 10:07:50;;;;;;;10.02;5.20;;;-2.50;74.80;;;;;;6184924;23;20020;-63
2022/01/11 10:10:21;;;;;;;8.65;5.43;;;-2.40;74.00;;;;;;6184539;23;20341;-64
2022/01/11 10:12:50;;;;;;;8.48;5.30;;;-2.30;73.10;;;;;;6184648;23;20001;-63
2022/01/11 10:15:28;;;;;;;8.48;5.18;;;-2.20;73.10;;;;;;6184671;23;20005;-64
2022/01/11 10:17:54;;;;;;;8.48;5.30;;;-2.10;73.60;;;;;;6184546;23;19997;-65
2022/01/11 10:20:22;;;;;;;8.95;5.30;;;-1.90;73.80;;;;;;6184512;23;20009;-64
2022/01/11 10:22:57;;;;;;;9.20;5.32;;;-1.80;73.30;;;;;;6184546;23;20343;-65
2022/01/11 10:25:24;;;;;;;8.32;4.97;;;-1.50;74.20;;;;;;6157849;23;20085;-65
2022/01/11 10:28:07;;;;;;;8.70;4.90;;;-1.10;71.80;;;;;;6184370;23;20005;-63
2022/01/11 10:30:35;;;;;;;8.70;5.07;;;-0.90;69.60;;;;;;6184305;23;20005;-63
2022/01/11 10:33:06;;;;;;;8.00;4.55;;;-0.40;70.40;;;;;;6184014;23;20013;-64
2022/01/11 10:35:42;;;;;;;7.47;4.60;;;0.30;68.70;;;;;;6184683;23;20016;-63
2022/01/11 10:38:09;;;;;;;8.55;4.70;;;0.60;66.60;;;;;;6185042;23;20005;-65
2022/01/11 10:40:40;;;;;;;7.40;4.15;;;1.00;66.30;;;;;;6184509;23;20027;-64
2022/01/11 10:43:19;;;;;;;7.65;4.28;;;1.60;66.30;;;;;;6184335;23;20005;-64
2022/01/11 10:45:48;;;;;;;7.65;4.50;;;2.10;64.10;;;;;;6184411;23;20489;-63
2022/01/11 10:48:15;;;;;;;7.38;3.95;;;2.50;63.00;;;;;;6184052;23;20071;-65
2022/01/11 10:50:42;;;;;;;7.35;4.35;;;2.90;60.30;;;;;;6184489;23;20008;-64
2022/01/11 10:53:13;;;;;;;6.78;3.90;;;3.40;60.30;;;;;;6184301;23;20056;-63
2022/01/11 10:55:39;;;;;;;6.95;3.72;;;3.70;58.30;;;;;;6157708;23;20001;-63
2022/01/11 10:58:07;;;;;;;6.72;3.90;;;3.80;58.10;;;;;;6184338;23;20015;-63
2022/01/11 11:00:36;;;;;;;6.85;3.88;;;3.90;57.40;;;;;;6184559;23;20373;-63
2022/01/11 11:03:12;;;;;;;7.68;4.15;;;4.00;57.00;;;;;;6184234;23;20001;-64
2022/01/11 11:05:48;;;;;;;7.30;4.18;;;4.30;55.90;;;;;;6184093;23;20001;-63
2022/01/11 11:08:23;;;;;;;8.30;4.45;;;4.30;54.50;;;;;;6183941;23;20123;-64
2022/01/11 11:10:55;;;;;;;8.07;4.72;;;4.20;54.70;;;;;;6184060;23;19997;-64
2022/01/11 11:13:38;;;;;;;8.10;4.67;;;4.20;54.80;;;;;;6184076;23;20098;-64
2022/01/11 11:16:25;;;;;;;7.60;4.55;;;4.10;53.10;;;;;;6184001;23;19997;-65
2022/01/11 11:18:57;;;;;;;7.90;4.32;;;4.00;54.10;;;;;;6183786;23;19997;-64
2022/01/11 11:21:32;;;;;;;;;;;4.00;54.80;;;;;;6184888;23;20325;-64
2022/01/11 11:24:05;;;;;;;7.32;4.00;;;4.00;52.90;;;;;;6183977;23;19901;-63
2022/01/11 11:26:37;;;;;;;8.52;4.15;;;4.40;52.60;;;;;;6183774;23;20005;-64
2022/01/11 11:29:05;;;;;;;7.13;4.20;;;4.60;53.10;;;;;;6183645;23;20443;-64
2022/01/11 11:31:34;;;;;;;7.20;4.10;;;4.70;52.20;;;;;;6184217;23;19997;-64
2022/01/11 11:34:04;;;;;;;7.00;3.80;;;4.60;52.70;;;;;;6183578;23;20021;-64
2022/01/11 11:36:30;;;;;;;8.90;3.63;;;4.80;53.70;;;;;;6183679;23;20009;-63
2022/01/11 11:39:03;;;;;;;6.45;3.72;;;5.10;52.10;;;;;;6183996;23;20024;-63
2022/01/11 11:41:30;;;;;;;6.28;3.67;;;5.30;51.60;;;;;;6184100;23;20338;-64
2022/01/11 11:44:13;;;;;;;6.18;3.60;;;5.40;51.50;;;;;;6183948;23;20065;-64
2022/01/11 11:47:01;;;;;;;6.05;3.47;;;5.40;50.60;;;;;;6183743;23;20033;-66
2022/01/11 11:49:47;;;;;;;6.30;3.70;;;5.10;51.00;;;;;;6183810;23;20144;-63
2022/01/11 11:52:21;;;;;;;6.63;3.67;;;4.60;51.60;;;;;;6184009;23;20005;-64
2022/01/11 11:54:53;;;;;;;6.82;3.92;;;4.30;52.20;;;;;;6183800;23;19997;-63
2022/01/11 11:57:20;;;;;;;7.13;3.85;;;3.70;53.00;;;;;;6184226;23;20008;-65
2022/01/11 11:59:52;;;;;;;6.85;3.85;;;3.10;52.90;;;;;;6157158;23;20001;-65
2022/01/11 12:02:40;;;;;;;7.68;3.80;;;2.30;53.90;;;;;;6183571;23;20048;-64
2022/01/11 12:05:28;;;;;;;7.70;4.03;;;1.50;55.70;;;;;;6183475;23;20001;-63
2022/01/11 12:07:54;;;;;;;7.78;4.13;;;1.00;56.90;;;;;;6183589;23;20058;-64
2022/01/11 12:10:30;;;;;;;7.20;4.10;;;0.40;58.10;;;;;;6183471;23;20001;-63
2022/01/11 12:12:56;;;;;;;7.00;4.10;;;0.20;59.70;;;;;;6183251;23;19997;-63
2022/01/11 12:15:21;;;;;;;6.93;3.95;;;-0.20;59.80;;;;;;6183492;23;20008;-62
2022/01/11 12:17:48;;;;;;;8.25;4.00;;;-0.40;60.70;;;;;;6156990;23;20060;-64
2022/01/11 12:20:47;;;;;;;8.10;4.40;;;-0.40;61.20;;;;;;6183459;23;20001;-63
2022/01/11 12:23:33;;;;;;;8.15;4.20;;;-0.50;61.60;;;;;;6173997;23;20016;-64
2022/01/11 12:26:21;;;;;;;7.75;4.45;;;-0.50;62.10;;;;;;6156982;23;20021;-64
2022/01/11 12:29:10;;;;;;;7.82;4.25;;;-0.60;62.40;;;;;;6183458;23;20000;-64
2022/01/11 12:32:13;;;;;;;6.95;4.00;;;-0.70;62.50;;;;;;6161985;23;20545;-64
2022/01/11 12:34:45;;;;;;;7.47;4.45;;;-0.80;62.40;;;;;;6063726;23;20026;-63
2022/01/11 12:37:27;;;;;;;7.10;4.25;;;-1.10;63.00;;;;;;6157858;23;20008;-63
2022/01/11 12:40:09;;;;;;;6.88;4.25;;;-1.20;63.60;;;;;;6183330;23;20008;-63
2022/01/11 12:42:36;;;;;;;7.95;4.50;;;-1.30;63.80;;;;;;6183399;23;20116;-63
2022/01/11 12:47:43;;;;;;;7.05;4.00;;;-1.50;62.70;;;;;;6183287;23;20001;-63
2022/01/11 12:50:16;;;;;;;7.68;4.10;;;-1.60;62.60;;;;;;6183578;23;20020;-63
2022/01/11 12:52:42;;;;;;;6.68;4.00;;;-1.80;62.90;;;;;;6183448;23;20009;-63